^^

..:: Storico WU ::..




Lo storico viene creato da WUnderground con i dati che la stazione Meteomincio invia al loro server. L' aggiornamento viene fatto ogni 5 minuti circa, tuttavia possono esserci intervalli pił ampi a causa di errori, interruzioni di servizio o problemi nell' invio tramite FTP.


Storico stazione MeteoMincio
Giorno Sommario per Dicembre 06, 2022 Unità:  Metrico    Inglese   Entrambi
Giorno Settimana Mese Anno
  Max: Min: Media:
Temperatura: 6.0 °C 3.0 °C 4.4 °C
Dew Point: 6.0 °C 2.0 °C 3.7 °C
Umidità: 97% 95% 96%
Velocità vento: 15km/h 0km/h 6.9km/h
Raffica: 21km/h - -
Direzione- - SW
Pressione: 1017.6 hPa 1015.3 hPa -
Precipitazioni: 0.20 mm    
 
 
Tabulato Dati per Dicembre 06, 2022
Ora Temperatura Dew Point Pressione Direzione Velocità vento Raffica Umidità Intensità pioggia (oraria) Info solare Situazione
00:04 6.0 °C 6.0 °C 1017.2 hPa SSW 7 km/h 11 km/h 96% 0.00 mm 0.00 W/m2 unknown
00:09 6.0 °C 6.0 °C 1017.2 hPa SW 8 km/h 11 km/h 96% 0.00 mm 0.00 W/m2 unknown
00:14 6.0 °C 6.0 °C 1017.2 hPa WSW 9 km/h 13 km/h 96% 0.00 mm 0.00 W/m2 unknown
00:19 6.0 °C 6.0 °C 1017.2 hPa WSW 8 km/h 13 km/h 96% 0.00 mm 0.00 W/m2 unknown
00:24 6.0 °C 6.0 °C 1017.3 hPa WSW 7 km/h 10 km/h 96% 0.00 mm 0.00 W/m2 unknown
00:29 6.0 °C 6.0 °C 1017.3 hPa West 8 km/h 10 km/h 96% 0.00 mm 0.00 W/m2 unknown
00:34 6.0 °C 5.0 °C 1017.3 hPa WSW 6 km/h 8 km/h 96% 0.00 mm 0.00 W/m2 unknown
00:39 6.0 °C 5.0 °C 1017.2 hPa West 6 km/h 8 km/h 96% 0.00 mm 0.00 W/m2 unknown
00:44 6.0 °C 5.0 °C 1017.2 hPa West 6 km/h 8 km/h 96% 0.00 mm 0.00 W/m2 unknown
00:49 6.0 °C 5.0 °C 1017.2 hPa West 6 km/h 8 km/h 96% 0.00 mm 0.00 W/m2 unknown
00:54 6.0 °C 5.0 °C 1017.2 hPa WNW 5 km/h 8 km/h 96% 0.00 mm 0.00 W/m2 unknown
00:59 6.0 °C 5.0 °C 1017.2 hPa WNW 8 km/h 10 km/h 96% 0.00 mm 0.00 W/m2 unknown
01:04 6.0 °C 5.0 °C 1017.3 hPa WNW 7 km/h 10 km/h 96% 0.00 mm 0.00 W/m2 unknown
01:09 6.0 °C 5.0 °C 1017.3 hPa WNW 7 km/h 8 km/h 96% 0.00 mm 0.00 W/m2 unknown
01:14 6.0 °C 5.0 °C 1017.3 hPa WNW 6 km/h 8 km/h 96% 0.00 mm 0.00 W/m2 unknown
01:19 6.0 °C 5.0 °C 1017.3 hPa WNW 7 km/h 10 km/h 96% 0.00 mm 0.00 W/m2 unknown
01:24 6.0 °C 5.0 °C 1017.3 hPa WNW 7 km/h 9 km/h 96% 0.00 mm 0.00 W/m2 unknown
01:29 6.0 °C 5.0 °C 1017.2 hPa WNW 6 km/h 10 km/h 96% 0.00 mm 0.00 W/m2 unknown
01:34 6.0 °C 5.0 °C 1017.2 hPa WNW 8 km/h 10 km/h 96% 0.00 mm 0.00 W/m2 unknown
01:39 6.0 °C 5.0 °C 1017.2 hPa WNW 11 km/h 18 km/h 96% 0.00 mm 0.00 W/m2 unknown
01:44 6.0 °C 5.0 °C 1017.2 hPa NW 12 km/h 19 km/h 96% 0.00 mm 0.00 W/m2 unknown
01:49 6.0 °C 5.0 °C 1017.1 hPa WNW 12 km/h 19 km/h 96% 0.00 mm 0.00 W/m2 unknown
01:54 6.0 °C 5.0 °C 1017.1 hPa WNW 12 km/h 16 km/h 96% 0.00 mm 0.00 W/m2 unknown
01:59 6.0 °C 5.0 °C 1017.1 hPa WNW 12 km/h 17 km/h 96% 0.00 mm 0.00 W/m2 unknown
02:04 6.0 °C 5.0 °C 1017.1 hPa West 12 km/h 17 km/h 96% 0.00 mm 0.00 W/m2 unknown
02:09 6.0 °C 5.0 °C 1017.1 hPa WNW 14 km/h 19 km/h 96% 0.00 mm 0.00 W/m2 unknown
02:14 6.0 °C 5.0 °C 1017.0 hPa WNW 14 km/h 19 km/h 96% 0.00 mm 0.00 W/m2 unknown
02:19 6.0 °C 5.0 °C 1017.0 hPa West 13 km/h 19 km/h 96% 0.00 mm 0.00 W/m2 unknown
02:24 6.0 °C 5.0 °C 1016.9 hPa West 11 km/h 15 km/h 96% 0.00 mm 0.00 W/m2 unknown
02:29 6.0 °C 5.0 °C 1016.9 hPa West 13 km/h 19 km/h 96% 0.00 mm 0.00 W/m2 unknown
02:34 6.0 °C 5.0 °C 1016.9 hPa West 11 km/h 19 km/h 96% 0.00 mm 0.00 W/m2 unknown
02:39 6.0 °C 5.0 °C 1016.9 hPa West 13 km/h 17 km/h 96% 0.00 mm 0.00 W/m2 unknown
02:44 6.0 °C 5.0 °C 1016.9 hPa West 10 km/h 16 km/h 96% 0.00 mm 0.00 W/m2 unknown
02:49 6.0 °C 5.0 °C 1016.9 hPa West 11 km/h 13 km/h 96% 0.00 mm 0.00 W/m2 unknown
02:54 6.0 °C 5.0 °C 1016.9 hPa West 9 km/h 13 km/h 96% 0.00 mm 0.00 W/m2 unknown
02:59 6.0 °C 5.0 °C 1016.8 hPa WNW 9 km/h 13 km/h 96% 0.00 mm 0.00 W/m2 unknown
03:04 6.0 °C 5.0 °C 1016.8 hPa WNW 10 km/h 15 km/h 96% 0.00 mm 0.00 W/m2 unknown
03:09 6.0 °C 5.0 °C 1016.8 hPa WNW 10 km/h 14 km/h 96% 0.00 mm 0.00 W/m2 unknown
03:14 6.0 °C 5.0 °C 1016.8 hPa West 8 km/h 13 km/h 96% 0.00 mm 0.00 W/m2 unknown
03:19 6.0 °C 5.0 °C 1016.8 hPa WNW 8 km/h 11 km/h 96% 0.00 mm 0.00 W/m2 unknown
03:24 6.0 °C 5.0 °C 1016.7 hPa WNW 8 km/h 11 km/h 96% 0.00 mm 0.00 W/m2 unknown
03:29 6.0 °C 5.0 °C 1016.7 hPa WNW 8 km/h 11 km/h 96% 0.00 mm 0.00 W/m2 unknown
03:34 6.0 °C 5.0 °C 1016.7 hPa WNW 10 km/h 13 km/h 96% 0.00 mm 0.00 W/m2 unknown
03:39 6.0 °C 5.0 °C 1016.7 hPa WNW 10 km/h 13 km/h 96% 0.00 mm 0.00 W/m2 unknown
03:44 6.0 °C 5.0 °C 1016.6 hPa NW 8 km/h 13 km/h 96% 0.00 mm 0.00 W/m2 unknown
03:49 5.0 °C 5.0 °C 1016.6 hPa WNW 8 km/h 13 km/h 96% 0.00 mm 0.00 W/m2 unknown
03:54 5.0 °C 5.0 °C 1016.5 hPa WNW 9 km/h 13 km/h 96% 0.00 mm 0.00 W/m2 unknown
03:59 5.0 °C 5.0 °C 1016.5 hPa WNW 10 km/h 13 km/h 96% 0.00 mm 0.00 W/m2 unknown
04:04 5.0 °C 5.0 °C 1016.4 hPa WNW 9 km/h 11 km/h 96% 0.00 mm 0.00 W/m2 unknown
04:09 5.0 °C 5.0 °C 1016.5 hPa WNW 10 km/h 11 km/h 96% 0.00 mm 0.00 W/m2 unknown
04:14 5.0 °C 5.0 °C 1016.5 hPa WNW 9 km/h 11 km/h 96% 0.00 mm 0.00 W/m2 unknown
04:19 5.0 °C 5.0 °C 1016.5 hPa WNW 8 km/h 11 km/h 96% 0.00 mm 0.00 W/m2 unknown
04:24 5.0 °C 5.0 °C 1016.5 hPa West 6 km/h 8 km/h 96% 0.00 mm 0.00 W/m2 unknown
04:29 5.0 °C 4.0 °C 1016.5 hPa WNW 5 km/h 8 km/h 96% 0.00 mm 0.00 W/m2 unknown
04:34 5.0 °C 4.0 °C 1016.5 hPa West 5 km/h 6 km/h 96% 0.00 mm 0.00 W/m2 unknown
04:39 5.0 °C 4.0 °C 1016.5 hPa WSW 8 km/h 13 km/h 96% 0.00 mm 0.00 W/m2 unknown
04:44 5.0 °C 4.0 °C 1016.5 hPa WSW 9 km/h 13 km/h 96% 0.00 mm 0.00 W/m2 unknown
04:49 4.0 °C 4.0 °C 1016.5 hPa WSW 8 km/h 13 km/h 96% 0.00 mm 0.00 W/m2 unknown
04:54 4.0 °C 4.0 °C 1016.4 hPa WSW 7 km/h 10 km/h 96% 0.00 mm 0.00 W/m2 unknown
04:59 4.0 °C 4.0 °C 1016.4 hPa WSW 9 km/h 13 km/h 96% 0.00 mm 0.00 W/m2 unknown
05:04 4.0 °C 3.0 °C 1016.4 hPa West 10 km/h 13 km/h 96% 0.00 mm 0.00 W/m2 unknown
05:09 4.0 °C 3.0 °C 1016.4 hPa West 8 km/h 11 km/h 96% 0.00 mm 0.00 W/m2 unknown
05:14 4.0 °C 3.0 °C 1016.4 hPa West 9 km/h 11 km/h 96% 0.00 mm 0.00 W/m2 unknown
05:19 4.0 °C 3.0 °C 1016.4 hPa West 8 km/h 11 km/h 96% 0.00 mm 0.00 W/m2 unknown
05:24 4.0 °C 3.0 °C 1016.4 hPa West 12 km/h 17 km/h 96% 0.20 mm 0.00 W/m2 unknown
05:29 4.0 °C 3.0 °C 1016.3 hPa West 10 km/h 16 km/h 96% 0.20 mm 0.00 W/m2 unknown
05:34 4.0 °C 3.0 °C 1016.3 hPa West 13 km/h 17 km/h 96% 0.20 mm 0.00 W/m2 unknown
05:39 4.0 °C 3.0 °C 1016.4 hPa West 13 km/h 17 km/h 96% 0.20 mm 0.00 W/m2 unknown
05:44 4.0 °C 3.0 °C 1016.4 hPa West 11 km/h 13 km/h 96% 0.20 mm 0.00 W/m2 unknown
05:49 4.0 °C 3.0 °C 1016.3 hPa WSW 9 km/h 13 km/h 96% 0.20 mm 0.00 W/m2 unknown
05:54 4.0 °C 3.0 °C 1016.3 hPa WSW 8 km/h 13 km/h 96% 0.20 mm 0.00 W/m2 unknown
05:59 4.0 °C 3.0 °C 1016.3 hPa West 9 km/h 13 km/h 96% 0.20 mm 0.00 W/m2 unknown
06:04 4.0 °C 3.0 °C 1016.3 hPa West 9 km/h 13 km/h 96% 0.20 mm 0.00 W/m2 unknown
06:09 3.0 °C 3.0 °C 1016.4 hPa West 9 km/h 13 km/h 96% 0.20 mm 0.00 W/m2 unknown
06:14 3.0 °C 3.0 °C 1016.4 hPa West 13 km/h 18 km/h 96% 0.20 mm 0.00 W/m2 unknown
06:19 3.0 °C 3.0 °C 1016.4 hPa West 14 km/h 19 km/h 96% 0.20 mm 0.00 W/m2 unknown
06:24 3.0 °C 3.0 °C 1016.4 hPa West 11 km/h 19 km/h 96% 0.20 mm 0.00 W/m2 unknown
06:29 3.0 °C 3.0 °C 1016.4 hPa West 11 km/h 13 km/h 96% 0.20 mm 0.00 W/m2 unknown
06:34 3.0 °C 3.0 °C 1016.4 hPa West 9 km/h 13 km/h 96% 0.00 mm 0.00 W/m2 unknown
06:39 3.0 °C 3.0 °C 1016.3 hPa West 12 km/h 17 km/h 96% 0.00 mm 0.00 W/m2 unknown
06:44 3.0 °C 3.0 °C 1016.3 hPa West 11 km/h 16 km/h 96% 0.00 mm 0.00 W/m2 unknown
06:49 3.0 °C 3.0 °C 1016.3 hPa WSW 12 km/h 15 km/h 96% 0.00 mm 0.00 W/m2 unknown
06:54 3.0 °C 3.0 °C 1016.3 hPa WSW 11 km/h 16 km/h 96% 0.00 mm 0.00 W/m2 unknown
06:59 3.0 °C 3.0 °C 1016.4 hPa West 13 km/h 17 km/h 96% 0.00 mm 0.00 W/m2 unknown
07:04 3.0 °C 3.0 °C 1016.4 hPa West 14 km/h 19 km/h 96% 0.00 mm 0.00 W/m2 unknown
07:09 3.0 °C 3.0 °C 1016.4 hPa West 12 km/h 19 km/h 96% 0.00 mm 0.00 W/m2 unknown
07:14 3.0 °C 3.0 °C 1016.4 hPa WSW 10 km/h 15 km/h 96% 0.00 mm 0.00 W/m2 unknown
07:19 3.0 °C 3.0 °C 1016.4 hPa West 14 km/h 19 km/h 96% 0.00 mm 0.00 W/m2 unknown
07:24 3.0 °C 3.0 °C 1016.4 hPa WSW 13 km/h 19 km/h 96% 0.00 mm 0.00 W/m2 unknown
07:29 3.0 °C 3.0 °C 1016.4 hPa WSW 14 km/h 19 km/h 96% 0.00 mm 0.00 W/m2 unknown
07:34 3.0 °C 3.0 °C 1016.4 hPa WSW 14 km/h 19 km/h 96% 0.00 mm 0.00 W/m2 unknown
07:39 3.0 °C 3.0 °C 1016.4 hPa WSW 14 km/h 19 km/h 96% 0.00 mm 0.00 W/m2 unknown
07:44 3.0 °C 2.0 °C 1016.5 hPa WSW 14 km/h 21 km/h 96% 0.00 mm 0.00 W/m2 unknown
07:49 3.0 °C 2.0 °C 1016.6 hPa WSW 15 km/h 21 km/h 96% 0.00 mm 0.00 W/m2 unknown
07:54 3.0 °C 2.0 °C 1016.6 hPa WSW 14 km/h 19 km/h 96% 0.00 mm 5.00 W/m2 unknown
07:59 3.0 °C 2.0 °C 1016.7 hPa WSW 12 km/h 19 km/h 96% 0.00 mm 9.00 W/m2 unknown
08:04 3.0 °C 2.0 °C 1016.8 hPa WSW 11 km/h 16 km/h 96% 0.00 mm 11.00 W/m2 unknown
08:09 3.0 °C 2.0 °C 1016.8 hPa West 12 km/h 19 km/h 96% 0.00 mm 16.00 W/m2 unknown
08:14 3.0 °C 2.0 °C 1016.8 hPa WSW 12 km/h 19 km/h 96% 0.00 mm 18.00 W/m2 unknown
08:19 3.0 °C 2.0 °C 1016.8 hPa WSW 13 km/h 19 km/h 96% 0.00 mm 21.00 W/m2 unknown
08:24 3.0 °C 2.0 °C 1016.8 hPa WSW 12 km/h 19 km/h 96% 0.00 mm 25.00 W/m2 unknown
08:29 3.0 °C 2.0 °C 1016.8 hPa WSW 12 km/h 17 km/h 96% 0.00 mm 28.00 W/m2 unknown
08:34 3.0 °C 3.0 °C 1016.8 hPa West 12 km/h 16 km/h 97% 0.00 mm 35.00 W/m2 unknown
08:39 3.0 °C 3.0 °C 1016.8 hPa WSW 9 km/h 14 km/h 97% 0.00 mm 44.00 W/m2 unknown
08:44 3.0 °C 3.0 °C 1016.9 hPa WSW 9 km/h 13 km/h 97% 0.00 mm 47.00 W/m2 unknown
08:49 3.0 °C 3.0 °C 1017.0 hPa WSW 10 km/h 17 km/h 97% 0.00 mm 28.00 W/m2 unknown
08:54 3.0 °C 3.0 °C 1017.0 hPa West 11 km/h 17 km/h 97% 0.00 mm 39.00 W/m2 unknown
08:59 3.0 °C 3.0 °C 1017.0 hPa West 11 km/h 16 km/h 97% 0.00 mm 42.00 W/m2 unknown
09:04 3.0 °C 3.0 °C 1017.0 hPa WSW 8 km/h 14 km/h 97% 0.00 mm 54.00 W/m2 unknown
09:09 3.0 °C 3.0 °C 1017.1 hPa WSW 9 km/h 13 km/h 97% 0.00 mm 77.00 W/m2 unknown
09:14 3.0 °C 3.0 °C 1017.1 hPa West 9 km/h 13 km/h 97% 0.00 mm 74.00 W/m2 unknown
09:19 3.0 °C 3.0 °C 1017.1 hPa West 10 km/h 13 km/h 96% 0.00 mm 86.00 W/m2 unknown
09:24 3.0 °C 3.0 °C 1017.1 hPa WNW 8 km/h 11 km/h 97% 0.00 mm 81.00 W/m2 unknown
09:29 3.0 °C 3.0 °C 1017.1 hPa West 9 km/h 13 km/h 97% 0.00 mm 84.00 W/m2 unknown
09:34 3.0 °C 3.0 °C 1017.2 hPa WNW 8 km/h 13 km/h 97% 0.00 mm 84.00 W/m2 unknown
09:39 3.0 °C 3.0 °C 1017.2 hPa WNW 8 km/h 11 km/h 96% 0.00 mm 88.00 W/m2 unknown
09:44 3.0 °C 3.0 °C 1017.2 hPa WNW 9 km/h 11 km/h 96% 0.00 mm 88.00 W/m2 unknown
09:49 3.0 °C 3.0 °C 1017.3 hPa WNW 7 km/h 11 km/h 97% 0.00 mm 86.00 W/m2 unknown
09:54 3.0 °C 3.0 °C 1017.3 hPa WNW 8 km/h 11 km/h 97% 0.00 mm 90.00 W/m2 unknown
09:59 3.0 °C 3.0 °C 1017.3 hPa West 9 km/h 11 km/h 97% 0.00 mm 93.00 W/m2 unknown
10:04 3.0 °C 3.0 °C 1017.4 hPa West 10 km/h 11 km/h 97% 0.00 mm 88.00 W/m2 unknown
10:09 4.0 °C 3.0 °C 1017.4 hPa WNW 10 km/h 13 km/h 97% 0.00 mm 84.00 W/m2 unknown
10:14 4.0 °C 3.0 °C 1017.5 hPa West 10 km/h 13 km/h 97% 0.00 mm 109.00 W/m2 unknown
10:19 4.0 °C 3.0 °C 1017.5 hPa WNW 10 km/h 13 km/h 97% 0.00 mm 125.00 W/m2 unknown
10:24 4.0 °C 3.0 °C 1017.5 hPa WNW 9 km/h 13 km/h 97% 0.00 mm 76.00 W/m2 unknown
10:29 4.0 °C 3.0 °C 1017.5 hPa West 10 km/h 11 km/h 97% 0.00 mm 79.00 W/m2 unknown
10:34 4.0 °C 3.0 °C 1017.6 hPa WNW 8 km/h 11 km/h 97% 0.00 mm 65.00 W/m2 unknown
10:39 4.0 °C 3.0 °C 1017.6 hPa NW 8 km/h 11 km/h 97% 0.00 mm 74.00 W/m2 unknown
10:44 4.0 °C 3.0 °C 1017.6 hPa NW 8 km/h 11 km/h 97% 0.00 mm 72.00 W/m2 unknown
10:49 4.0 °C 4.0 °C 1017.5 hPa NW 8 km/h 11 km/h 97% 0.00 mm 81.00 W/m2 unknown
10:54 4.0 °C 4.0 °C 1017.5 hPa WNW 8 km/h 11 km/h 97% 0.00 mm 104.00 W/m2 unknown
10:59 4.0 °C 4.0 °C 1017.5 hPa West 9 km/h 11 km/h 97% 0.00 mm 98.00 W/m2 unknown
11:04 4.0 °C 4.0 °C 1017.5 hPa WNW 10 km/h 11 km/h 97% 0.00 mm 95.00 W/m2 unknown
11:09 4.0 °C 4.0 °C 1017.5 hPa West 9 km/h 11 km/h 97% 0.00 mm 116.00 W/m2 unknown
11:14 4.0 °C 4.0 °C 1017.4 hPa WNW 9 km/h 13 km/h 97% 0.00 mm 135.00 W/m2 unknown
11:19 4.0 °C 3.0 °C 1017.3 hPa WNW 10 km/h 13 km/h 97% 0.00 mm 123.00 W/m2 unknown
11:24 4.0 °C 4.0 °C 1017.3 hPa NW 8 km/h 13 km/h 97% 0.00 mm 116.00 W/m2 unknown
11:29 4.0 °C 4.0 °C 1017.2 hPa WNW 9 km/h 11 km/h 97% 0.00 mm 151.00 W/m2 unknown
11:34 4.0 °C 4.0 °C 1017.2 hPa West 9 km/h 13 km/h 97% 0.00 mm 151.00 W/m2 unknown
11:39 4.0 °C 4.0 °C 1017.1 hPa NW 8 km/h 13 km/h 97% 0.00 mm 105.00 W/m2 unknown
11:44 4.0 °C 4.0 °C 1017.1 hPa NNW 8 km/h 11 km/h 97% 0.00 mm 88.00 W/m2 unknown
11:49 4.0 °C 4.0 °C 1017.1 hPa NNW 8 km/h 11 km/h 97% 0.00 mm 95.00 W/m2 unknown
11:54 4.0 °C 4.0 °C 1017.2 hPa NNW 6 km/h 11 km/h 97% 0.00 mm 97.00 W/m2 unknown
11:59 4.0 °C 4.0 °C 1017.1 hPa NW 6 km/h 8 km/h 97% 0.00 mm 98.00 W/m2 unknown
12:04 4.0 °C 4.0 °C 1017.1 hPa West 5 km/h 8 km/h 97% 0.00 mm 86.00 W/m2 unknown
12:09 4.0 °C 4.0 °C 1017.1 hPa NW 7 km/h 10 km/h 97% 0.00 mm 104.00 W/m2 unknown
12:14 4.0 °C 4.0 °C 1017.1 hPa NNW 5 km/h 10 km/h 97% 0.00 mm 91.00 W/m2 unknown
12:19 4.0 °C 4.0 °C 1017.1 hPa NW 6 km/h 8 km/h 97% 0.00 mm 98.00 W/m2 unknown
12:24 4.0 °C 4.0 °C 1017.0 hPa WNW 8 km/h 14 km/h 97% 0.00 mm 114.00 W/m2 unknown
12:29 4.0 °C 4.0 °C 1016.9 hPa NW 8 km/h 15 km/h 97% 0.00 mm 139.00 W/m2 unknown
12:34 5.0 °C 4.0 °C 1016.9 hPa NNW 9 km/h 14 km/h 97% 0.00 mm 130.00 W/m2 unknown
12:39 5.0 °C 4.0 °C 1016.8 hPa NNW 8 km/h 11 km/h 97% 0.00 mm 120.00 W/m2 unknown
12:44 5.0 °C 4.0 °C 1016.8 hPa NW 6 km/h 11 km/h 97% 0.00 mm 135.00 W/m2 unknown
12:49 5.0 °C 4.0 °C 1016.8 hPa NNW 5 km/h 11 km/h 97% 0.00 mm 135.00 W/m2 unknown
12:54 5.0 °C 4.0 °C 1016.7 hPa NNW 3 km/h 6 km/h 97% 0.00 mm 98.00 W/m2 unknown
12:59 5.0 °C 5.0 °C 1016.6 hPa North 6 km/h 6 km/h 97% 0.00 mm 123.00 W/m2 unknown
13:04 5.0 °C 5.0 °C 1016.5 hPa North 6 km/h 8 km/h 97% 0.00 mm 139.00 W/m2 unknown
13:09 5.0 °C 5.0 °C 1016.5 hPa North 7 km/h 8 km/h 97% 0.00 mm 109.00 W/m2 unknown
13:14 5.0 °C 5.0 °C 1016.5 hPa North 6 km/h 8 km/h 97% 0.00 mm 107.00 W/m2 unknown
13:19 5.0 °C 5.0 °C 1016.5 hPa NNE 7 km/h 11 km/h 97% 0.00 mm 137.00 W/m2 unknown
13:24 5.0 °C 5.0 °C 1016.4 hPa NNW 8 km/h 11 km/h 97% 0.00 mm 176.00 W/m2 unknown
13:29 5.0 °C 4.0 °C 1016.4 hPa North 8 km/h 10 km/h 96% 0.00 mm 148.00 W/m2 unknown
13:34 5.0 °C 4.0 °C 1016.3 hPa NNE 7 km/h 10 km/h 96% 0.00 mm 127.00 W/m2 unknown
13:39 5.0 °C 4.0 °C 1016.2 hPa NE 7 km/h 8 km/h 96% 0.00 mm 118.00 W/m2 unknown
13:44 5.0 °C 4.0 °C 1016.1 hPa NNE 5 km/h 6 km/h 96% 0.00 mm 114.00 W/m2 unknown
13:49 5.0 °C 4.0 °C 1016.1 hPa NNE 7 km/h 10 km/h 96% 0.00 mm 91.00 W/m2 unknown
13:54 5.0 °C 4.0 °C 1016.0 hPa NE 8 km/h 11 km/h 96% 0.00 mm 88.00 W/m2 unknown
13:59 5.0 °C 4.0 °C 1016.0 hPa NE 7 km/h 10 km/h 96% 0.00 mm 93.00 W/m2 unknown
14:04 5.0 °C 4.0 °C 1016.0 hPa ENE 8 km/h 10 km/h 96% 0.00 mm 97.00 W/m2 unknown
14:09 5.0 °C 4.0 °C 1016.0 hPa NE 6 km/h 10 km/h 96% 0.00 mm 86.00 W/m2 unknown
14:14 5.0 °C 4.0 °C 1016.0 hPa North 6 km/h 10 km/h 96% 0.00 mm 93.00 W/m2 unknown
14:19 5.0 °C 4.0 °C 1016.0 hPa NE 5 km/h 6 km/h 96% 0.00 mm 90.00 W/m2 unknown
14:24 5.0 °C 4.0 °C 1015.9 hPa East 4 km/h 8 km/h 96% 0.00 mm 88.00 W/m2 unknown
14:29 5.0 °C 4.0 °C 1016.0 hPa East 3 km/h 8 km/h 96% 0.00 mm 81.00 W/m2 unknown
14:34 5.0 °C 4.0 °C 1016.0 hPa ENE 5 km/h 8 km/h 96% 0.00 mm 69.00 W/m2 unknown
14:39 5.0 °C 4.0 °C 1016.0 hPa NE 5 km/h 8 km/h 96% 0.00 mm 70.00 W/m2 unknown
14:44 5.0 °C 4.0 °C 1015.9 hPa NNE 2 km/h 6 km/h 96% 0.00 mm 76.00 W/m2 unknown
14:49 5.0 °C 4.0 °C 1015.8 hPa North 4 km/h 6 km/h 96% 0.00 mm 72.00 W/m2 unknown
14:54 5.0 °C 4.0 °C 1015.9 hPa North 4 km/h 6 km/h 96% 0.00 mm 67.00 W/m2 unknown
14:59 5.0 °C 4.0 °C 1015.9 hPa ENE 5 km/h 8 km/h 96% 0.00 mm 53.00 W/m2 unknown
15:04 5.0 °C 4.0 °C 1015.8 hPa East 6 km/h 8 km/h 96% 0.00 mm 58.00 W/m2 unknown
15:09 5.0 °C 4.0 °C 1015.8 hPa East 6 km/h 8 km/h 96% 0.00 mm 58.00 W/m2 unknown
15:14 5.0 °C 4.0 °C 1015.8 hPa ESE 5 km/h 8 km/h 96% 0.00 mm 63.00 W/m2 unknown
15:19 5.0 °C 4.0 °C 1015.8 hPa ESE 5 km/h 8 km/h 96% 0.00 mm 76.00 W/m2 unknown
15:24 5.0 °C 4.0 °C 1015.8 hPa ESE 4 km/h 6 km/h 96% 0.00 mm 79.00 W/m2 unknown
15:29 5.0 °C 4.0 °C 1015.8 hPa NE 3 km/h 5 km/h 96% 0.00 mm 81.00 W/m2 unknown
15:34 5.0 °C 4.0 °C 1015.8 hPa NNE 5 km/h 6 km/h 96% 0.00 mm 74.00 W/m2 unknown
15:39 5.0 °C 4.0 °C 1015.7 hPa NE 4 km/h 6 km/h 96% 0.00 mm 47.00 W/m2 unknown
15:44 5.0 °C 4.0 °C 1015.7 hPa ENE 4 km/h 6 km/h 96% 0.00 mm 30.00 W/m2 unknown
15:49 5.0 °C 4.0 °C 1015.7 hPa Calm     96% 0.00 mm 25.00 W/m2 unknown
15:54 5.0 °C 4.0 °C 1015.7 hPa NE 3 km/h 5 km/h 96% 0.00 mm 25.00 W/m2 unknown
15:59 5.0 °C 4.0 °C 1015.7 hPa NE 3 km/h 6 km/h 96% 0.00 mm 21.00 W/m2 unknown
16:04 5.0 °C 4.0 °C 1015.7 hPa NE 3 km/h 6 km/h 96% 0.00 mm 12.00 W/m2 unknown
16:09 5.0 °C 4.0 °C 1015.6 hPa North 3 km/h 6 km/h 96% 0.00 mm 12.00 W/m2 unknown
16:14 5.0 °C 4.0 °C 1015.6 hPa North 2 km/h 5 km/h 96% 0.00 mm 11.00 W/m2 unknown
16:19 5.0 °C 4.0 °C 1015.7 hPa North 3 km/h 6 km/h 96% 0.00 mm 9.00 W/m2 unknown
16:24 5.0 °C 4.0 °C 1015.8 hPa NNE 3 km/h 5 km/h 96% 0.00 mm 7.00 W/m2 unknown
16:29 5.0 °C 4.0 °C 1015.8 hPa NNE 4 km/h 6 km/h 96% 0.00 mm 0.00 W/m2 unknown
16:34 5.0 °C 4.0 °C 1015.7 hPa North 4 km/h 6 km/h 96% 0.00 mm 0.00 W/m2 unknown
16:39 5.0 °C 4.0 °C 1015.7 hPa NNE 3 km/h 5 km/h 96% 0.00 mm 0.00 W/m2 unknown
16:44 5.0 °C 4.0 °C 1015.7 hPa NE 2 km/h 5 km/h 96% 0.00 mm 0.00 W/m2 unknown
16:49 5.0 °C 4.0 °C 1015.7 hPa NNE 4 km/h 6 km/h 96% 0.00 mm 0.00 W/m2 unknown
16:54 5.0 °C 4.0 °C 1015.7 hPa NNE 3 km/h 6 km/h 96% 0.00 mm 0.00 W/m2 unknown
16:59 5.0 °C 4.0 °C 1015.7 hPa North 3 km/h 6 km/h 96% 0.00 mm 0.00 W/m2 unknown
17:04 5.0 °C 4.0 °C 1015.7 hPa NE 2 km/h 5 km/h 96% 0.00 mm 0.00 W/m2 unknown
17:09 5.0 °C 4.0 °C 1015.7 hPa NE 2 km/h 4 km/h 95% 0.00 mm 0.00 W/m2 unknown
17:14 4.0 °C 4.0 °C 1015.7 hPa NE 1 km/h 3 km/h 96% 0.00 mm 0.00 W/m2 unknown
17:19 4.0 °C 4.0 °C 1015.8 hPa NE 3 km/h 4 km/h 96% 0.00 mm 0.00 W/m2 unknown
17:24 4.0 °C 4.0 °C 1015.7 hPa East 2 km/h 4 km/h 96% 0.00 mm 0.00 W/m2 unknown
17:29 4.0 °C 4.0 °C 1015.7 hPa East 2 km/h 4 km/h 96% 0.00 mm 0.00 W/m2 unknown
17:34 4.0 °C 4.0 °C 1015.7 hPa ENE 2 km/h 4 km/h 96% 0.00 mm 0.00 W/m2 unknown
17:39 4.0 °C 4.0 °C 1015.7 hPa ENE 5 km/h 6 km/h 96% 0.00 mm 0.00 W/m2 unknown
17:44 4.0 °C 4.0 °C 1015.6 hPa NE 5 km/h 6 km/h 96% 0.00 mm 0.00 W/m2 unknown
17:49 4.0 °C 4.0 °C 1015.6 hPa NNW 4 km/h 6 km/h 96% 0.00 mm 0.00 W/m2 unknown
17:54 4.0 °C 4.0 °C 1015.5 hPa NE 2 km/h 5 km/h 96% 0.00 mm 0.00 W/m2 unknown
17:59 4.0 °C 4.0 °C 1015.6 hPa East 4 km/h 6 km/h 96% 0.00 mm 0.00 W/m2 unknown
18:04 4.0 °C 4.0 °C 1015.6 hPa NNE 6 km/h 6 km/h 96% 0.00 mm 0.00 W/m2 unknown
18:09 4.0 °C 4.0 °C 1015.6 hPa North 4 km/h 6 km/h 96% 0.00 mm 0.00 W/m2 unknown
18:14 4.0 °C 4.0 °C 1015.6 hPa NE 4 km/h 6 km/h 96% 0.00 mm 0.00 W/m2 unknown
18:19 4.0 °C 4.0 °C 1015.6 hPa East 4 km/h 6 km/h 96% 0.00 mm 0.00 W/m2 unknown
18:24 4.0 °C 4.0 °C 1015.6 hPa NE 4 km/h 6 km/h 96% 0.00 mm 0.00 W/m2 unknown
18:29 4.0 °C 4.0 °C 1015.7 hPa NE 2 km/h 5 km/h 96% 0.00 mm 0.00 W/m2 unknown
18:34 4.0 °C 4.0 °C 1015.7 hPa East 3 km/h 5 km/h 96% 0.00 mm 0.00 W/m2 unknown
18:39 4.0 °C 4.0 °C 1015.7 hPa ESE 4 km/h 6 km/h 96% 0.00 mm 0.00 W/m2 unknown
18:44 4.0 °C 4.0 °C 1015.7 hPa East 5 km/h 6 km/h 96% 0.00 mm 0.00 W/m2 unknown
18:49 4.0 °C 4.0 °C 1015.6 hPa East 4 km/h 6 km/h 96% 0.00 mm 0.00 W/m2 unknown
18:54 4.0 °C 3.0 °C 1015.7 hPa East 3 km/h 5 km/h 96% 0.00 mm 0.00 W/m2 unknown
18:59 4.0 °C 3.0 °C 1015.8 hPa ENE 5 km/h 6 km/h 96% 0.00 mm 0.00 W/m2 unknown
19:04 4.0 °C 3.0 °C 1015.8 hPa NE 3 km/h 6 km/h 96% 0.00 mm 0.00 W/m2 unknown
19:09 4.0 °C 3.0 °C 1015.8 hPa NE 2 km/h 5 km/h 96% 0.00 mm 0.00 W/m2 unknown
19:14 4.0 °C 3.0 °C 1015.8 hPa NE 4 km/h 6 km/h 96% 0.00 mm 0.00 W/m2 unknown
19:19 4.0 °C 3.0 °C 1015.8 hPa NE 2 km/h 6 km/h 96% 0.00 mm 0.00 W/m2 unknown
19:24 4.0 °C 3.0 °C 1015.9 hPa East 2 km/h 4 km/h 96% 0.00 mm 0.00 W/m2 unknown
19:29 4.0 °C 3.0 °C 1015.8 hPa East 2 km/h 4 km/h 96% 0.00 mm 0.00 W/m2 unknown
19:34 4.0 °C 3.0 °C 1015.8 hPa East 2 km/h 4 km/h 96% 0.00 mm 0.00 W/m2 unknown
19:39 4.0 °C 3.0 °C 1015.9 hPa SE 2 km/h 4 km/h 96% 0.00 mm 0.00 W/m2 unknown
19:44 4.0 °C 3.0 °C 1015.9 hPa SSE 3 km/h 4 km/h 96% 0.00 mm 0.00 W/m2 unknown
19:49 4.0 °C 3.0 °C 1015.9 hPa SE 4 km/h 6 km/h 96% 0.00 mm 0.00 W/m2 unknown
19:54 4.0 °C 3.0 °C 1015.9 hPa SE 2 km/h 5 km/h 96% 0.00 mm 0.00 W/m2 unknown
19:59 4.0 °C 3.0 °C 1015.9 hPa Calm   3 km/h 96% 0.00 mm 0.00 W/m2 unknown
20:04 4.0 °C 3.0 °C 1015.8 hPa Calm   2 km/h 96% 0.00 mm 0.00 W/m2 unknown
20:09 4.0 °C 3.0 °C 1015.8 hPa SE 2 km/h 2 km/h 96% 0.00 mm 0.00 W/m2 unknown
20:14 4.0 °C 3.0 °C 1015.8 hPa South 3 km/h 5 km/h 96% 0.00 mm 0.00 W/m2 unknown
20:19 4.0 °C 3.0 °C 1015.8 hPa SW 4 km/h 6 km/h 96% 0.00 mm 0.00 W/m2 unknown
20:24 4.0 °C 3.0 °C 1015.8 hPa SW 4 km/h 6 km/h 96% 0.00 mm 0.00 W/m2 unknown
20:29 4.0 °C 3.0 °C 1015.8 hPa SW 3 km/h 6 km/h 96% 0.00 mm 0.00 W/m2 unknown
20:34 4.0 °C 3.0 °C 1015.8 hPa Calm   5 km/h 96% 0.00 mm 0.00 W/m2 unknown
20:39 4.0 °C 3.0 °C 1015.8 hPa Calm   2 km/h 96% 0.00 mm 0.00 W/m2 unknown
20:44 4.0 °C 3.0 °C 1015.8 hPa SW 2 km/h 4 km/h 96% 0.00 mm 0.00 W/m2 unknown
20:49 4.0 °C 3.0 °C 1015.8 hPa WNW 4 km/h 6 km/h 96% 0.00 mm 0.00 W/m2 unknown
20:54 4.0 °C 3.0 °C 1015.8 hPa WNW 3 km/h 6 km/h 96% 0.00 mm 0.00 W/m2 unknown
20:59 4.0 °C 3.0 °C 1015.7 hPa WNW 1 km/h 5 km/h 96% 0.00 mm 0.00 W/m2 unknown
21:04 4.0 °C 3.0 °C 1015.7 hPa WNW 2 km/h 4 km/h 96% 0.00 mm 0.00 W/m2 unknown
21:09 4.0 °C 3.0 °C 1015.7 hPa WNW 4 km/h 6 km/h 96% 0.00 mm 0.00 W/m2 unknown
21:14 4.0 °C 3.0 °C 1015.6 hPa WNW 5 km/h 6 km/h 96% 0.00 mm 0.00 W/m2 unknown
21:19 4.0 °C 3.0 °C 1015.7 hPa WNW 5 km/h 6 km/h 96% 0.00 mm 0.00 W/m2 unknown
21:24 4.0 °C 3.0 °C 1015.7 hPa WNW 4 km/h 6 km/h 96% 0.00 mm 0.00 W/m2 unknown
21:29 4.0 °C 3.0 °C 1015.6 hPa WNW 3 km/h 6 km/h 96% 0.00 mm 0.00 W/m2 unknown
21:34 4.0 °C 3.0 °C 1015.7 hPa SW 3 km/h 6 km/h 96% 0.00 mm 0.00 W/m2 unknown
21:39 4.0 °C 3.0 °C 1015.6 hPa West 3 km/h 6 km/h 96% 0.00 mm 0.00 W/m2 unknown
21:44 4.0 °C 3.0 °C 1015.5 hPa West 2 km/h 5 km/h 96% 0.00 mm 0.00 W/m2 unknown
21:49 4.0 °C 3.0 °C 1015.5 hPa SW 4 km/h 6 km/h 96% 0.00 mm 0.00 W/m2 unknown
21:54 4.0 °C 3.0 °C 1015.5 hPa WSW 4 km/h 6 km/h 96% 0.00 mm 0.00 W/m2 unknown
21:59 4.0 °C 3.0 °C 1015.5 hPa SW 5 km/h 6 km/h 96% 0.00 mm 0.00 W/m2 unknown
22:04 4.0 °C 3.0 °C 1015.5 hPa WSW 5 km/h 6 km/h 96% 0.00 mm 0.00 W/m2 unknown
22:09 4.0 °C 3.0 °C 1015.5 hPa SW 4 km/h 6 km/h 96% 0.00 mm 0.00 W/m2 unknown
22:14 4.0 °C 3.0 °C 1015.5 hPa SSW 6 km/h 8 km/h 96% 0.00 mm 0.00 W/m2 unknown
22:19 4.0 °C 3.0 °C 1015.5 hPa SSW 5 km/h 8 km/h 96% 0.00 mm 0.00 W/m2 unknown
22:24 4.0 °C 3.0 °C 1015.4 hPa SSW 5 km/h 6 km/h 96% 0.00 mm 0.00 W/m2 unknown
22:29 4.0 °C 3.0 °C 1015.4 hPa SSW 5 km/h 6 km/h 96% 0.00 mm 0.00 W/m2 unknown
22:34 4.0 °C 3.0 °C 1015.5 hPa SSW 6 km/h 8 km/h 96% 0.00 mm 0.00 W/m2 unknown
22:39 4.0 °C 3.0 °C 1015.6 hPa SSW 6 km/h 8 km/h 96% 0.00 mm 0.00 W/m2 unknown
22:44 4.0 °C 3.0 °C 1015.7 hPa SSW 7 km/h 8 km/h 96% 0.00 mm 0.00 W/m2 unknown
22:49 4.0 °C 3.0 °C 1015.7 hPa SW 6 km/h 8 km/h 96% 0.00 mm 0.00 W/m2 unknown
22:54 4.0 °C 3.0 °C 1015.6 hPa SW 4 km/h 8 km/h 96% 0.00 mm 0.00 W/m2 unknown
22:59 4.0 °C 3.0 °C 1015.5 hPa SW 3 km/h 6 km/h 96% 0.00 mm 0.00 W/m2 unknown
23:04 4.0 °C 3.0 °C 1015.5 hPa SW 3 km/h 6 km/h 96% 0.00 mm 0.00 W/m2 unknown
23:09 4.0 °C 3.0 °C 1015.5 hPa WSW 2 km/h 5 km/h 96% 0.00 mm 0.00 W/m2 unknown
23:14 4.0 °C 3.0 °C 1015.4 hPa WNW 3 km/h 6 km/h 96% 0.00 mm 0.00 W/m2 unknown
23:19 4.0 °C 3.0 °C 1015.5 hPa WNW 4 km/h 6 km/h 96% 0.00 mm 0.00 W/m2 unknown
23:24 4.0 °C 3.0 °C 1015.5 hPa WNW 5 km/h 6 km/h 96% 0.00 mm 0.00 W/m2 unknown
23:29 4.0 °C 3.0 °C 1015.4 hPa WNW 5 km/h 6 km/h 96% 0.00 mm 0.00 W/m2 unknown
23:34 4.0 °C 3.0 °C 1015.4 hPa WNW 3 km/h 6 km/h 96% 0.00 mm 0.00 W/m2 unknown
23:39 4.0 °C 3.0 °C 1015.3 hPa WNW 5 km/h 6 km/h 96% 0.00 mm 0.00 W/m2 unknown
23:44 4.0 °C 3.0 °C 1015.3 hPa West 5 km/h 6 km/h 96% 0.00 mm 0.00 W/m2 unknown
23:49 4.0 °C 3.0 °C 1015.4 hPa WSW 6 km/h 6 km/h 96% 0.00 mm 0.00 W/m2 unknown
23:54 4.0 °C 3.0 °C 1015.4 hPa WNW 5 km/h 8 km/h 96% 0.00 mm 0.00 W/m2 unknown
23:59 4.0 °C 3.0 °C 1015.4 hPa WNW 5 km/h 8 km/h 96% 0.00 mm 0.00 W/m2 unknown
Stazione Meteorologica MeteoMincio Rivalta s/M (MN)
Con i complimenti di Weather Underground - 4 mb



METEO PILLOLE
Maggior quantità di pioggia caduta in 48 ore
Cherrapunji (1313 m) - India
Tra il 15 e 16 giugno 1995 caddero 2493mm di pioggia.
Share

Non seguire questo link o sarai bannato dal sito!